createdAt,value
2019-06-08T08:27:43.400Z,40.34
2019-06-08T08:28:43.314Z,40.45
2019-06-08T08:29:43.265Z,39.87
2019-06-08T08:30:43.220Z,39.89
2019-06-08T08:31:43.176Z,38.76
2019-06-08T08:32:43.129Z,38.46
2019-06-08T08:33:43.108Z,37.81
2019-06-08T08:34:43.040Z,37.15
2019-06-08T08:35:42.997Z,36.67
2019-06-08T08:36:42.955Z,35.61
2019-06-08T08:37:42.911Z,35.34
2019-06-08T08:38:42.871Z,35.14
2019-06-08T08:39:42.857Z,34.29
2019-06-08T09:22:23.474Z,24.22
2019-06-08T09:23:23.409Z,24.13
2019-06-08T09:24:23.441Z,23.07
2019-06-08T09:25:23.339Z,23.93
2019-06-08T09:26:23.305Z,23.34
2019-06-08T09:27:23.254Z,22.58
2019-06-08T09:28:23.252Z,23.57
2019-06-08T09:29:23.197Z,21.38
2019-06-08T09:30:23.295Z,20.34
2019-06-08T09:31:23.153Z,19.48
2019-06-08T09:32:23.079Z,18.04
2019-06-08T09:33:23.070Z,17.56
2019-06-08T09:34:23.010Z,17.47
2019-06-08T09:35:22.977Z,17.88
2019-06-08T09:36:22.982Z,16.72
2019-06-08T09:37:22.932Z,16.63
2019-06-08T09:38:22.878Z,16.34
2019-06-08T09:39:22.849Z,14.99
2019-06-08T09:40:22.818Z,15.29
2019-06-08T09:41:22.829Z,14.72
2019-06-08T09:42:22.782Z,14.43
2019-06-08T09:43:22.724Z,14.05
2019-06-08T09:44:22.693Z,14.16
2019-06-08T09:45:22.668Z,13.58
2019-06-08T09:46:22.634Z,13.68
2019-06-08T09:47:22.604Z,12.80
2019-06-08T09:48:22.654Z,12.30
2019-06-08T09:49:22.544Z,12.70
2019-06-08T09:50:22.524Z,11.82
2019-06-08T09:51:22.487Z,12.22
2019-06-08T09:52:22.462Z,12.32
2019-06-08T09:53:28.546Z,12.13
2019-06-08T09:54:22.430Z,11.84
2019-06-08T09:55:22.379Z,11.75
2019-06-08T09:56:22.352Z,12.05
2019-06-08T09:57:22.322Z,10.68
2019-06-08T09:58:22.294Z,9.31
2019-06-08T09:59:22.270Z,9.51
2019-06-08T10:00:25.735Z,8.82
2019-06-08T10:01:22.216Z,8.72
2019-06-08T10:02:22.188Z,9.41
2019-06-08T10:03:22.176Z,9.41
2019-06-08T10:04:25.443Z,9.70
2019-06-08T10:05:22.112Z,9.60
2019-06-08T10:06:22.113Z,10.97
2019-06-08T10:07:22.069Z,10.19
2019-06-08T10:08:22.032Z,10.49
2019-06-08T10:09:22.007Z,9.80
2019-06-08T10:10:21.989Z,9.12
2019-06-08T10:11:21.958Z,9.51
2019-06-08T10:12:21.974Z,9.70
2019-06-08T10:13:21.907Z,9.71
2019-06-08T10:14:21.883Z,9.42
2019-06-08T10:15:21.861Z,9.42
2019-06-08T10:16:21.922Z,9.31
2019-06-08T10:17:21.830Z,8.24
2019-06-08T10:18:21.808Z,8.93
2019-06-08T10:19:21.761Z,9.72
2019-06-08T10:20:21.731Z,8.25
2019-06-08T10:21:21.724Z,7.67
2019-06-08T10:22:21.683Z,6.98
2019-06-08T10:23:30.939Z,6.69
2019-06-08T10:24:21.670Z,6.88
2019-06-08T10:25:21.613Z,7.48
2019-06-08T10:26:21.597Z,6.79
2019-06-08T10:27:21.565Z,6.69
2019-06-08T10:28:21.903Z,7.38
2019-06-08T10:29:21.515Z,7.68
2019-06-08T10:30:21.531Z,7.49
2019-06-08T10:31:35.521Z,6.21
2019-06-08T10:32:21.462Z,5.22
2019-06-08T10:33:21.421Z,5.91
2019-06-08T10:34:21.396Z,6.12
2019-06-08T10:35:21.371Z,6.21
2019-06-08T10:36:21.382Z,4.83
2019-06-08T10:37:21.324Z,5.13
2019-06-08T10:38:21.577Z,5.33
2019-06-08T10:39:21.293Z,4.64
2019-06-08T10:40:21.260Z,4.83
2019-06-08T10:41:21.852Z,5.93
2019-06-08T10:42:21.210Z,5.43
2019-06-08T10:43:21.189Z,5.24
2019-06-08T10:44:21.212Z,4.55
2019-06-08T10:45:21.149Z,4.74
2019-06-08T10:46:21.187Z,4.44
2019-06-08T10:47:21.103Z,5.33
2019-06-08T10:48:21.089Z,4.54
2019-06-08T10:49:21.086Z,5.04
2019-06-08T10:50:21.066Z,4.05
2019-06-08T10:51:21.017Z,5.04
2019-06-08T10:52:21.005Z,4.35
2019-06-08T10:53:20.969Z,4.75
2019-06-08T10:54:20.957Z,4.55
2019-06-08T10:55:20.927Z,4.75
2019-06-08T10:56:20.944Z,4.35
2019-06-08T10:57:20.883Z,4.16
2019-06-08T10:58:20.860Z,3.76
2019-06-08T10:59:20.853Z,4.26
2019-06-08T11:00:23.893Z,3.37
2019-06-08T11:01:20.796Z,3.77
2019-06-08T11:02:20.977Z,3.57
2019-06-08T11:03:20.756Z,2.97
2019-06-08T11:04:20.736Z,2.58
2019-06-08T11:05:20.716Z,2.97
2019-06-08T11:06:20.698Z,4.36
2019-06-08T11:07:20.674Z,3.96
2019-06-08T11:08:20.685Z,3.56
2019-06-08T11:09:20.836Z,4.54
2019-06-08T11:10:20.607Z,4.44
2019-06-08T11:11:48.099Z,4.44
2019-06-08T11:12:48.559Z,5.22
2019-06-08T11:13:50.059Z,5.22
2019-06-08T11:14:48.130Z,5.03
2019-06-08T11:15:48.103Z,4.84
2019-06-08T11:16:47.632Z,4.44
2019-06-08T11:17:47.423Z,4.14
2019-06-08T11:18:50.689Z,4.53
2019-06-08T11:19:48.020Z,4.93
2019-06-08T11:20:47.883Z,5.32
2019-06-08T11:21:48.229Z,5.51
2019-06-08T11:22:49.754Z,5.80
2019-06-08T11:24:04.527Z,5.51
2019-06-08T11:24:48.589Z,5.42
2019-06-08T11:25:48.867Z,5.22
2019-06-08T11:26:47.866Z,4.53
2019-06-08T11:27:47.537Z,4.73
2019-06-08T11:28:50.822Z,5.22
2019-06-08T11:29:47.726Z,4.63
2019-06-08T11:30:48.087Z,4.83
2019-06-08T11:31:48.413Z,4.74
2019-06-08T11:32:48.042Z,4.25
2019-06-08T11:33:48.840Z,4.35
2019-06-08T11:34:48.822Z,4.75
2019-06-08T11:37:26.120Z,4.56
2019-06-08T11:38:28.714Z,4.36
2019-06-08T11:39:28.564Z,4.06
2019-06-08T11:40:27.798Z,3.37
2019-06-08T11:41:27.840Z,3.17
2019-06-08T11:42:28.480Z,2.87
2019-06-08T11:43:28.556Z,3.67
2019-06-08T11:44:27.619Z,3.38
2019-06-08T11:45:25.979Z,3.87
2019-06-08T11:46:28.053Z,4.07
2019-06-08T11:47:27.749Z,3.67
2019-06-08T11:48:28.389Z,3.47
2019-06-08T11:49:27.709Z,4.16
2019-06-08T11:50:25.822Z,4.06
2019-06-08T11:51:29.642Z,5.25
2019-06-08T11:52:26.434Z,4.84
2019-06-08T11:53:25.761Z,4.64
2019-06-08T11:54:34.281Z,4.55
2019-06-08T11:55:28.005Z,4.46
2019-06-08T11:56:25.697Z,4.75
2019-06-08T11:57:28.203Z,4.46
2019-06-08T11:58:28.226Z,3.96
2019-06-08T11:59:25.641Z,3.46
2019-06-08T12:00:30.697Z,4.06
2019-06-08T12:01:27.544Z,4.06
2019-06-08T12:02:25.577Z,3.36
2019-06-08T12:03:27.692Z,3.27
2019-06-08T12:04:25.534Z,3.27
2019-06-08T12:05:27.755Z,3.27
2019-06-08T12:06:25.496Z,4.16
2019-06-08T12:07:25.476Z,4.35
2019-06-08T12:08:28.167Z,4.55
2019-06-08T12:09:25.470Z,4.16
2019-06-08T12:10:25.416Z,3.17
2019-06-08T12:11:25.396Z,3.17
2019-06-08T12:12:25.373Z,2.87
2019-06-08T12:13:27.532Z,2.78
2019-06-08T12:14:25.337Z,3.08
2019-06-08T12:15:25.361Z,2.58
2019-06-08T12:16:25.297Z,2.39
2019-06-08T12:17:27.161Z,3.19
2019-06-08T12:18:25.256Z,2.29
2019-06-08T12:19:25.245Z,1.89
2019-06-08T12:20:27.843Z,1.89
2019-06-08T12:21:27.248Z,2.39
2019-06-08T12:22:25.175Z,1.89
2019-06-08T12:23:25.159Z,1.99
2019-06-08T12:24:40.552Z,1.89
2019-06-08T12:25:25.116Z,1.59
2019-06-08T12:26:25.100Z,1.09
2019-06-08T12:27:33.208Z,1.09
2019-06-08T12:28:25.057Z,1.20
2019-06-08T12:29:25.038Z,1.39
2019-06-08T12:30:26.214Z,2.00
2019-06-08T12:31:25.006Z,1.29
2019-06-08T12:32:24.980Z,0.60
2019-06-08T12:33:25.010Z,1.09
2019-06-08T12:34:24.943Z,1.59
2019-06-08T12:35:24.925Z,1.59
2019-06-08T12:36:24.901Z,1.99
2019-06-08T12:37:24.884Z,2.39
2019-06-08T12:38:24.866Z,2.19
2019-06-08T12:39:24.871Z,2.78
2019-06-08T12:40:24.827Z,2.87
2019-06-08T12:41:24.806Z,2.78
2019-06-08T12:42:25.140Z,2.78
2019-06-08T12:43:24.765Z,2.78
2019-06-08T12:44:26.790Z,3.67
2019-06-08T12:45:24.761Z,4.46
2019-06-08T12:46:24.707Z,4.27
2019-06-08T12:47:26.655Z,3.07
2019-06-08T12:48:25.425Z,2.87
2019-06-08T12:49:24.652Z,2.87
2019-06-08T12:50:24.630Z,2.87
2019-06-08T12:51:24.648Z,3.38
2019-06-08T12:52:24.596Z,2.28
2019-06-08T12:53:24.572Z,1.89
2019-06-08T12:54:24.548Z,2.48
2019-06-08T12:55:25.438Z,2.48
2019-06-08T12:56:24.506Z,2.09
2019-06-08T12:57:24.526Z,2.29
2019-06-08T12:58:24.468Z,1.19
2019-06-08T12:59:24.455Z,1.39
2019-06-08T13:00:24.429Z,0.99
2019-06-08T13:01:24.414Z,1.20
2019-06-08T13:02:24.502Z,1.69
2019-06-08T13:03:24.412Z,1.50
2019-06-08T13:04:24.361Z,0.40
2019-06-08T13:05:24.328Z,0.99
2019-06-08T13:06:24.314Z,0.99
2019-06-08T13:07:24.288Z,0.20
2019-06-08T13:08:24.275Z,0.79
2019-06-08T13:09:24.288Z,1.59
2019-06-08T13:10:24.410Z,1.49
2019-06-08T13:11:24.207Z,1.59
2019-06-08T13:12:24.192Z,1.39
2019-06-08T13:13:24.611Z,1.29
2019-06-08T13:14:24.598Z,1.98
2019-06-08T13:15:24.128Z,1.89
2019-06-08T13:16:24.678Z,1.98
2019-06-08T13:17:24.088Z,2.28
2019-06-08T13:18:24.071Z,2.38
2019-06-08T13:19:24.052Z,2.28
2019-06-08T13:20:24.027Z,2.48
2019-06-08T13:21:34.132Z,2.08
2019-06-08T13:22:27.948Z,2.47
2019-06-08T13:23:23.969Z,2.77
2019-06-08T13:24:23.947Z,2.67
2019-06-08T13:26:27.838Z,3.06
2019-06-08T13:27:23.892Z,3.36
2019-06-08T13:28:25.540Z,2.97
2019-06-08T13:29:23.844Z,3.26
2019-06-08T13:30:26.161Z,4.15
2019-06-08T13:31:24.777Z,3.95
2019-06-08T13:32:23.781Z,3.45
2019-06-08T13:33:23.761Z,4.05
2019-06-08T13:34:24.433Z,3.56
2019-06-08T13:35:23.715Z,3.26
2019-06-08T13:36:26.259Z,2.76
2019-06-08T13:37:23.707Z,1.78
2019-06-08T13:38:23.659Z,2.27
2019-06-08T13:39:23.625Z,2.67
2019-06-08T13:40:23.766Z,2.08
2019-06-08T13:41:26.335Z,1.78
2019-06-08T13:42:23.594Z,2.17
2019-06-08T13:43:23.545Z,2.57
2019-06-08T13:44:23.515Z,1.98
2019-06-08T13:45:23.578Z,2.17
2019-06-08T13:46:23.701Z,1.78
2019-06-08T13:47:23.476Z,2.08
2019-06-08T13:48:23.449Z,1.68
2019-06-08T13:49:26.783Z,1.68
2019-06-08T13:50:23.991Z,1.78
2019-06-08T13:51:24.357Z,1.98
2019-06-08T13:52:24.135Z,2.47
2019-06-08T13:53:28.493Z,2.27
2019-06-08T13:54:24.330Z,2.47
2019-06-08T13:55:42.225Z,2.28
2019-06-08T13:56:24.078Z,1.98
2019-06-08T13:57:24.965Z,2.18
2019-06-08T13:58:32.110Z,1.39
2019-06-08T13:59:26.296Z,0.99
2019-06-08T14:00:23.664Z,1.48
2019-06-08T14:01:23.805Z,1.98
2019-06-08T14:02:28.146Z,1.59
2019-06-08T14:03:24.209Z,1.09
2019-06-08T14:04:23.733Z,1.19
2019-06-08T14:05:27.696Z,1.49
2019-06-08T14:06:23.734Z,1.98
2019-06-08T14:07:28.490Z,1.68
2019-06-08T14:08:24.160Z,2.28
2019-06-08T14:09:23.322Z,2.18
2019-06-08T14:10:24.108Z,2.38
2019-06-08T14:11:24.075Z,1.58
2019-06-08T14:12:24.261Z,1.48
2019-06-08T14:13:27.861Z,1.98
2019-06-08T14:14:24.037Z,2.08
2019-06-08T14:15:23.420Z,1.68
2019-06-08T14:16:24.798Z,2.08
2019-06-08T14:17:24.198Z,2.27
2019-06-08T14:18:26.289Z,2.47
2019-06-08T14:19:24.422Z,2.67
2019-06-08T14:20:24.211Z,2.76
2019-06-08T14:21:31.938Z,3.65
2019-06-08T14:22:24.255Z,4.44
2019-06-08T14:23:23.140Z,4.24
2019-06-08T14:24:27.454Z,4.53
2019-06-08T14:25:23.386Z,4.43
2019-06-08T14:26:23.220Z,3.64
2019-06-08T14:27:23.476Z,3.83
2019-06-08T14:28:23.268Z,4.23
2019-06-08T14:29:23.263Z,4.52
2019-06-08T14:30:23.513Z,4.22
2019-06-08T14:31:23.984Z,5.11
2019-06-08T14:32:22.468Z,5.30
2019-06-08T14:33:25.884Z,5.21
2019-06-08T14:34:23.664Z,5.50
2019-06-08T14:35:23.807Z,4.91
2019-06-08T14:36:23.252Z,5.90
2019-06-08T14:37:22.874Z,5.01
2019-06-08T14:38:25.698Z,4.92
2019-06-08T14:39:23.073Z,5.31
2019-06-08T14:40:23.405Z,4.82
2019-06-08T14:41:22.780Z,5.22
2019-06-08T14:42:25.989Z,5.11
2019-06-08T14:43:23.008Z,4.03
2019-06-08T14:44:22.705Z,4.13
2019-06-08T14:45:22.728Z,3.25
2019-06-08T14:46:23.145Z,4.33
2019-06-08T14:47:22.778Z,4.93
2019-06-08T14:48:25.546Z,4.13
2019-06-08T14:49:26.481Z,3.45
2019-06-08T14:50:22.926Z,3.25
2019-06-08T14:51:22.382Z,3.45
2019-06-08T14:52:22.683Z,3.05
2019-06-08T14:53:22.963Z,2.86
2019-06-08T14:54:26.279Z,3.05
2019-06-08T14:55:23.193Z,3.16
2019-06-08T14:56:22.846Z,3.25
2019-06-08T14:57:21.877Z,2.17
2019-06-08T14:58:26.320Z,1.18
2019-06-08T14:59:22.031Z,1.18
2019-06-08T15:00:22.970Z,0.39
2019-06-08T15:01:22.749Z,0.78
2019-06-08T15:02:21.724Z,1.57
2019-06-08T15:03:21.732Z,1.37
2019-06-08T15:04:23.865Z,2.06
2019-06-08T15:05:21.665Z,1.37
2019-06-08T15:06:21.625Z,2.16
2019-06-08T15:07:24.601Z,2.16
2019-06-08T15:08:21.816Z,3.14
2019-06-08T15:09:23.472Z,2.36
2019-06-08T15:10:21.739Z,2.45
2019-06-08T15:11:21.502Z,2.16
2019-06-08T15:12:21.514Z,2.65
2019-06-08T15:13:21.844Z,3.44
2019-06-08T15:14:21.602Z,2.66
2019-06-08T15:15:21.586Z,2.75
2019-06-08T15:16:21.599Z,2.66
2019-06-08T15:17:21.822Z,2.36
2019-06-08T15:18:21.821Z,2.36
2019-06-08T15:19:22.155Z,2.16
2019-06-08T15:20:21.946Z,1.57
2019-06-08T15:21:23.081Z,1.97
2019-06-08T15:22:22.247Z,2.46
2019-06-08T15:23:22.879Z,2.26
2019-06-08T15:24:21.179Z,2.46
2019-06-08T15:25:21.159Z,2.66
2019-06-08T15:26:29.862Z,2.56
2019-06-08T15:27:22.717Z,2.36
2019-06-08T15:28:21.082Z,2.16
2019-06-08T15:29:21.055Z,3.05
2019-06-08T15:30:21.110Z,3.64
2019-06-08T15:31:21.130Z,4.03
2019-06-08T15:32:20.978Z,4.82
2019-06-08T15:33:21.529Z,5.31
2019-06-08T15:34:21.225Z,5.80
2019-06-08T15:35:21.081Z,5.11
2019-06-08T15:36:22.073Z,5.70
2019-06-08T15:37:21.158Z,6.29
2019-06-08T15:38:22.128Z,7.96
2019-06-08T15:39:21.654Z,8.84
2019-06-08T15:40:21.523Z,8.93
2019-06-08T15:41:21.418Z,9.52
2019-06-08T15:42:21.963Z,10.68
2019-06-08T15:43:21.943Z,10.78
2019-06-08T15:44:23.133Z,11.46
2019-06-08T15:45:20.647Z,11.55
2019-06-08T15:46:20.630Z,11.85
2019-06-08T15:47:20.599Z,12.14
2019-06-08T15:48:20.577Z,12.13
2019-06-08T15:49:20.547Z,11.83
2019-06-08T15:50:20.554Z,12.23
2019-06-08T15:51:20.492Z,12.33
2019-06-08T15:52:20.499Z,12.82
2019-06-08T15:53:20.442Z,12.42
2019-06-08T15:54:20.414Z,12.52
2019-06-08T15:55:20.434Z,12.92
2019-06-08T15:56:32.757Z,12.62
2019-06-08T15:57:20.378Z,12.91
2019-06-08T15:58:20.305Z,12.90
2019-06-08T15:59:20.281Z,13.49
2019-06-08T16:00:20.250Z,13.49
2019-06-08T16:01:20.225Z,13.39
2019-06-08T16:02:20.202Z,13.29
2019-06-08T16:03:20.224Z,13.39
2019-06-08T16:04:20.140Z,13.20
2019-06-08T16:05:20.134Z,13.39
2019-06-08T16:06:20.085Z,13.68
2019-06-08T16:07:20.076Z,14.27
2019-06-08T16:08:20.062Z,13.39
2019-06-08T16:09:20.005Z,13.58
2019-06-08T16:10:19.979Z,13.48
2019-06-08T16:11:19.947Z,13.39
2019-06-08T16:12:19.926Z,13.29
2019-06-08T16:13:19.895Z,13.48
2019-06-08T16:14:19.911Z,13.48
2019-06-08T16:15:19.837Z,14.06
2019-06-08T16:16:19.810Z,14.73
2019-06-08T16:17:19.786Z,14.92
2019-06-08T16:18:19.753Z,15.12
2019-06-08T16:19:19.761Z,15.22
2019-06-08T16:20:19.698Z,15.70
2019-06-08T16:21:19.672Z,15.69
2019-06-08T16:22:19.642Z,16.47
2019-06-08T16:23:19.618Z,16.56
2019-06-08T16:24:19.591Z,16.47
2019-06-08T16:25:19.592Z,16.07
2019-06-08T16:26:19.534Z,16.26
2019-06-08T16:27:19.498Z,16.64
2019-06-08T16:28:19.475Z,16.44
2019-06-08T16:29:19.442Z,16.74
2019-06-08T16:30:19.414Z,17.71
2019-06-08T16:31:19.448Z,18.00
2019-06-08T16:32:19.360Z,17.71
2019-06-08T16:33:19.326Z,17.90
2019-06-08T16:34:19.303Z,17.71
2019-06-08T16:35:19.309Z,18.00
2019-06-08T16:36:19.242Z,17.70
2019-06-08T16:37:19.206Z,17.79
2019-06-08T16:38:19.176Z,18.57
2019-06-08T16:39:19.149Z,18.76
2019-06-08T16:40:19.152Z,18.66
2019-06-08T16:41:19.092Z,17.98
2019-06-08T16:42:19.062Z,17.69
2019-06-08T16:43:19.034Z,17.58
2019-06-08T16:44:18.999Z,17.68
2019-06-08T16:45:19.010Z,18.27
2019-06-08T16:46:18.942Z,18.84
2019-06-08T16:47:18.913Z,18.94
2019-06-08T16:48:18.881Z,18.85
2019-06-08T16:49:18.871Z,19.24
2019-06-08T16:50:24.415Z,18.95
2019-06-08T16:51:18.814Z,18.95
2019-06-08T16:52:18.777Z,18.95
2019-06-08T16:53:18.727Z,19.04
2019-06-08T16:54:18.701Z,18.55
2019-06-08T16:55:18.663Z,18.73
2019-06-08T16:56:18.637Z,18.93
2019-06-08T16:57:18.638Z,19.42
2019-06-08T16:58:18.575Z,19.80
2019-06-08T16:59:18.540Z,19.80
2019-06-08T17:00:30.745Z,19.80
2019-06-08T17:01:18.484Z,19.79
2019-06-08T17:02:18.447Z,20.07
2019-06-08T17:03:18.415Z,20.17
2019-06-08T17:04:18.384Z,20.37
2019-06-08T17:05:18.382Z,20.07
2019-06-08T17:06:18.323Z,21.14
2019-06-08T17:07:18.287Z,21.24
2019-06-08T17:08:18.254Z,20.85
2019-06-08T17:09:18.227Z,20.37
2019-06-08T17:10:18.223Z,20.27
2019-06-08T17:11:18.156Z,21.14
2019-06-08T17:12:18.122Z,21.14
2019-06-08T17:13:18.090Z,20.27
2019-06-08T17:14:18.060Z,20.76
2019-06-08T17:15:18.071Z,21.24
2019-06-08T17:16:17.990Z,21.14
2019-06-08T17:17:17.957Z,21.23
2019-06-08T17:18:17.922Z,21.53
2019-06-08T17:19:17.889Z,21.51
2019-06-08T17:20:17.855Z,21.51
2019-06-08T17:21:18.018Z,21.61
2019-06-08T17:22:17.785Z,21.61
2019-06-08T17:23:17.749Z,21.71
2019-06-08T17:24:17.718Z,22.30
2019-06-08T17:25:17.689Z,22.00
2019-06-08T17:26:17.649Z,22.30
2019-06-08T17:27:26.639Z,21.51
2019-06-08T17:28:17.749Z,22.19
2019-06-08T17:29:17.596Z,22.49
2019-06-08T17:30:17.508Z,21.81
2019-06-08T17:31:17.479Z,22.10
2019-06-08T17:32:17.438Z,22.10
2019-06-08T17:33:17.458Z,21.71
2019-06-08T17:34:20.446Z,22.00
2019-06-08T17:35:17.335Z,22.49
2019-06-08T17:36:17.300Z,22.86
2019-06-08T17:37:17.265Z,22.38
2019-06-08T17:38:17.228Z,22.38
2019-06-08T17:39:17.233Z,22.77
2019-06-08T17:40:17.155Z,22.38
2019-06-08T17:41:17.126Z,22.38
2019-06-08T17:42:17.087Z,22.38
2019-06-08T17:43:17.056Z,22.56
2019-06-08T17:44:17.047Z,23.14
2019-06-08T17:45:16.983Z,23.43
2019-06-08T17:46:16.980Z,23.14
2019-06-08T17:47:16.910Z,23.14
2019-06-08T17:48:16.874Z,23.72
2019-06-08T17:49:16.839Z,23.72
2019-06-08T17:50:16.802Z,24.21
2019-06-08T17:51:16.802Z,24.58
2019-06-08T17:52:16.729Z,24.68
2019-06-08T17:53:16.692Z,24.78
2019-06-08T17:54:16.660Z,24.87
2019-06-08T17:55:16.646Z,24.87
2019-06-08T17:56:16.597Z,24.86
2019-06-08T17:57:16.581Z,24.78
2019-06-08T17:58:16.521Z,24.58
2019-06-08T17:59:16.480Z,25.25
2019-06-08T18:00:16.525Z,24.86
2019-06-08T18:01:16.405Z,24.67
2019-06-08T18:02:25.410Z,24.86
2019-06-08T18:03:17.245Z,24.86
2019-06-08T18:04:17.530Z,24.67
2019-06-08T18:05:17.947Z,25.15
2019-06-08T18:06:17.936Z,25.73
2019-06-08T18:07:17.114Z,25.82
2019-06-08T18:08:17.474Z,25.82
2019-06-08T18:09:17.805Z,26.10
2019-06-08T18:10:17.936Z,26.10
2019-06-08T18:11:17.347Z,26.30
2019-06-08T18:12:18.138Z,25.99
2019-06-08T18:13:18.288Z,25.90
2019-06-08T18:14:18.109Z,26.09
2019-06-08T18:15:17.506Z,27.17
2019-06-08T18:16:17.484Z,27.55
2019-06-08T18:17:17.757Z,27.15
2019-06-08T18:18:17.629Z,27.55
2019-06-08T18:19:17.193Z,26.97
2019-06-08T18:20:17.830Z,26.57
2019-06-08T18:21:17.576Z,27.24
2019-06-08T18:22:18.371Z,27.34
2019-06-08T18:23:17.334Z,27.72
2019-06-08T18:24:17.533Z,27.61
2019-06-08T18:25:17.377Z,28.09
2019-06-08T18:26:17.244Z,28.00
2019-06-08T18:27:18.077Z,28.58
2019-06-08T18:28:17.269Z,28.77
2019-06-08T18:29:15.395Z,29.34
2019-06-08T18:30:15.341Z,29.14
2019-06-08T18:31:15.373Z,29.43
2019-06-08T18:32:15.293Z,29.63
2019-06-08T18:33:15.234Z,30.19
2019-06-08T18:34:17.612Z,30.96
2019-06-08T18:35:15.203Z,31.06
2019-06-08T18:36:16.985Z,30.96
2019-06-08T18:37:15.079Z,30.87
2019-06-08T18:38:15.036Z,30.66
2019-06-08T18:39:15.005Z,31.04
2019-06-08T18:40:15.585Z,30.94
2019-06-08T18:41:14.978Z,31.22
2019-06-08T18:42:14.886Z,31.41
2019-06-08T18:43:16.929Z,31.99
2019-06-08T18:44:17.254Z,31.99
2019-06-08T18:45:14.771Z,32.57
2019-06-08T18:46:14.743Z,33.15
2019-06-08T18:47:14.777Z,33.13
2019-06-08T18:48:14.655Z,33.03
2019-06-08T18:49:14.831Z,33.23
2019-06-08T18:50:14.578Z,33.23
2019-06-08T18:51:14.571Z,33.33
2019-06-08T18:52:14.501Z,33.91
2019-06-08T18:53:14.460Z,33.79
2019-06-08T18:54:15.150Z,34.46
2019-06-08T18:55:14.388Z,34.37
2019-06-08T18:56:14.375Z,34.66
2019-06-08T18:57:14.306Z,34.92
2019-06-08T18:58:22.100Z,34.92
2019-06-08T18:59:14.227Z,35.02
2019-06-08T19:00:14.189Z,35.22
2019-06-08T19:01:14.315Z,35.22
2019-06-08T19:02:14.110Z,35.22
2019-06-08T19:03:14.074Z,35.50
2019-06-08T19:04:14.032Z,35.70
2019-06-08T19:05:13.996Z,35.89
2019-06-08T19:06:13.955Z,36.07
2019-06-08T19:07:13.945Z,36.54
2019-06-08T19:08:13.879Z,36.54
2019-06-08T19:09:13.838Z,37.12
2019-06-08T19:10:13.795Z,37.12
2019-06-08T19:11:13.757Z,37.60
2019-06-08T19:12:13.741Z,37.32
2019-06-08T19:13:13.689Z,37.79
2019-06-08T19:14:13.638Z,37.51
2019-06-08T19:15:13.602Z,37.87
2019-06-08T19:16:14.556Z,38.54
2019-06-08T19:17:13.517Z,38.84
2019-06-08T19:18:13.518Z,39.03
2019-06-08T19:19:13.438Z,39.79
2019-06-08T19:20:13.402Z,39.70
2019-06-08T19:21:13.358Z,40.28
2019-06-08T19:22:13.358Z,40.08
2019-06-08T19:23:13.278Z,39.78
2019-06-08T19:24:13.242Z,40.25
2019-06-08T19:25:13.200Z,41.89
2019-06-08T19:26:13.164Z,42.37
2019-06-08T19:27:13.118Z,42.47
2019-06-08T19:28:13.126Z,42.73
2019-06-08T19:29:13.038Z,43.50
2019-06-08T19:30:13.006Z,44.08
2019-06-08T19:31:12.964Z,44.75
2019-06-08T19:32:12.918Z,44.27
2019-06-08T19:33:12.881Z,45.61
2019-06-08T19:34:12.869Z,46.17
2019-06-08T19:35:12.797Z,45.78
2019-06-08T19:36:12.757Z,46.36
2019-06-08T19:37:12.733Z,45.78
2019-06-08T19:38:12.675Z,46.45
2019-06-08T19:39:12.636Z,46.65
2019-06-08T19:40:12.674Z,47.03
2019-06-08T19:41:12.555Z,47.68
2019-06-08T19:42:12.512Z,48.07
2019-06-08T19:43:12.507Z,48.25
2019-06-08T19:44:12.430Z,48.16
2019-06-08T19:45:12.397Z,48.74
2019-06-08T19:46:12.351Z,48.54
2019-06-08T19:47:12.306Z,47.97
2019-06-08T19:48:12.271Z,47.49
2019-06-08T19:49:12.271Z,47.37
2019-06-08T19:50:13.186Z,47.66
2019-06-08T19:51:12.342Z,47.37
2019-06-08T19:52:12.108Z,47.37
2019-06-08T19:53:12.066Z,47.46
2019-06-08T19:54:12.024Z,47.66
2019-06-08T19:55:11.980Z,48.13
2019-06-08T19:56:11.942Z,48.23
2019-06-08T19:57:11.932Z,48.30
2019-06-08T19:58:11.858Z,48.02
2019-06-08T19:59:11.815Z,48.11
2019-06-08T20:00:11.776Z,48.69
2019-06-08T20:01:11.734Z,48.59
2019-06-08T20:02:11.724Z,48.40
2019-06-08T20:03:11.650Z,48.59
2019-06-08T20:04:11.612Z,48.97
2019-06-08T20:05:11.576Z,49.74
2019-06-08T20:06:14.223Z,49.07
2019-06-08T20:07:11.529Z,49.81
2019-06-08T20:08:11.445Z,50.20
2019-06-08T20:09:11.403Z,50.48
2019-06-08T20:10:11.363Z,50.00
2019-06-08T20:11:11.320Z,50.48
2019-06-08T20:12:11.320Z,50.87
2019-06-08T20:13:11.242Z,50.67
2019-06-08T20:14:11.197Z,50.96
2019-06-08T20:15:11.152Z,50.67
2019-06-08T20:16:11.113Z,52.01
2019-06-08T20:17:11.106Z,53.26
2019-06-08T20:18:11.032Z,53.64
2019-06-08T20:19:10.988Z,53.74
2019-06-08T20:20:11.366Z,53.45
2019-06-08T20:21:10.905Z,53.36
2019-06-08T20:22:10.883Z,53.33
2019-06-08T20:23:10.843Z,52.75
2019-06-08T20:24:10.784Z,52.85
2019-06-08T20:25:10.827Z,52.66
2019-06-08T20:26:10.695Z,52.75
2019-06-08T20:27:10.657Z,53.33
2019-06-08T20:28:10.619Z,53.33
2019-06-08T20:29:16.021Z,53.42
2019-06-08T20:30:12.348Z,53.42
2019-06-08T20:31:10.487Z,53.42
2019-06-08T20:32:10.470Z,54.38
2019-06-08T20:33:10.405Z,56.39
2019-06-08T20:34:10.367Z,56.46
2019-06-08T20:35:10.351Z,57.32
2019-06-08T20:36:10.277Z,57.23
2019-06-08T20:37:10.273Z,56.75
2019-06-08T20:38:10.192Z,56.56
2019-06-08T20:39:10.151Z,56.27
2019-06-08T20:40:13.841Z,56.84
2019-06-08T20:41:10.065Z,56.84
2019-06-08T20:42:11.998Z,56.56
2019-06-08T20:43:09.981Z,56.62
2019-06-08T20:44:09.946Z,57.23
2019-06-08T20:45:09.899Z,56.84
2019-06-08T20:46:09.859Z,56.56
2019-06-08T20:47:09.813Z,56.53
2019-06-08T20:48:09.800Z,55.57
2019-06-08T20:49:09.727Z,55.57
2019-06-08T20:50:09.689Z,55.76
2019-06-08T20:51:09.642Z,56.24
2019-06-08T20:52:09.604Z,56.43
2019-06-08T20:53:09.597Z,57.39
2019-06-08T20:54:09.536Z,57.77
2019-06-08T20:55:09.472Z,57.97
2019-06-08T20:56:09.430Z,57.77
2019-06-08T20:57:09.397Z,57.58
2019-06-08T20:58:09.347Z,57.77
2019-06-08T20:59:09.342Z,57.77
2019-06-08T21:00:11.704Z,57.97
2019-06-08T21:01:09.222Z,58.15
2019-06-08T21:02:09.179Z,58.73
2019-06-08T21:03:09.136Z,58.15
2019-06-08T21:04:09.096Z,57.97
2019-06-08T21:05:09.076Z,58.15
2019-06-08T21:06:09.012Z,58.54
2019-06-08T21:07:08.965Z,57.93
2019-06-08T21:08:08.961Z,57.93
2019-06-08T21:09:08.881Z,58.12
2019-06-08T21:10:08.848Z,58.73
2019-06-08T21:11:08.805Z,59.37
2019-06-08T21:12:08.757Z,59.66
2019-06-08T21:13:08.721Z,59.47
2019-06-08T21:14:08.698Z,60.04
2019-06-08T21:15:08.627Z,59.75
2019-06-08T21:16:08.593Z,59.47
2019-06-08T21:17:08.540Z,58.98
2019-06-08T21:18:08.527Z,58.80
2019-06-08T21:19:08.456Z,59.08
2019-06-08T21:20:08.626Z,58.80
2019-06-08T21:21:08.370Z,59.37
2019-06-08T21:22:08.373Z,59.75
2019-06-08T21:23:08.393Z,59.75
2019-06-08T21:24:08.240Z,59.75
2019-06-08T21:25:08.638Z,59.47
2019-06-08T21:26:08.186Z,60.04
2019-06-08T21:27:08.311Z,60.52
2019-06-08T21:28:08.100Z,60.42
2019-06-08T21:29:08.342Z,60.23
2019-06-08T21:30:19.929Z,60.33
2019-06-08T21:31:08.507Z,60.61
2019-06-08T21:32:08.237Z,61.72
2019-06-08T21:33:08.265Z,62.11
2019-06-08T21:34:07.811Z,61.72
2019-06-08T21:35:08.839Z,61.63
2019-06-08T21:36:08.692Z,62.01
2019-06-08T21:37:09.173Z,61.92
2019-06-08T21:38:22.568Z,62.01
2019-06-08T21:39:08.311Z,62.11
2019-06-08T21:40:08.583Z,62.11
2019-06-08T21:41:08.333Z,61.92
2019-06-08T21:42:07.915Z,62.21
2019-06-08T21:43:08.165Z,62.97
2019-06-08T21:44:07.960Z,62.97
2019-06-08T21:45:09.725Z,63.35
2019-06-08T21:46:07.761Z,62.97
2019-06-08T21:47:07.915Z,62.68
2019-06-08T21:48:07.573Z,62.30
2019-06-08T21:49:07.641Z,62.78
2019-06-08T21:50:08.075Z,62.78
2019-06-08T21:51:08.265Z,62.49
2019-06-08T21:52:07.328Z,62.68
2019-06-08T21:53:07.777Z,63.26
2019-06-08T21:54:07.139Z,62.97
2019-06-08T21:55:07.277Z,63.45
2019-06-08T21:56:07.898Z,63.83
2019-06-08T21:57:09.441Z,63.73
2019-06-08T21:58:08.039Z,63.83
2019-06-08T21:59:07.857Z,64.40
2019-06-08T22:00:27.174Z,64.40
2019-06-08T22:01:07.341Z,64.18
2019-06-08T22:02:08.140Z,64.85
2019-06-08T22:03:08.109Z,64.37
2019-06-08T22:04:07.811Z,64.65
2019-06-08T22:05:08.213Z,63.99
2019-06-08T22:06:07.832Z,64.50
2019-06-08T22:07:07.091Z,64.40
2019-06-08T22:08:07.956Z,64.40
2019-06-08T22:09:06.995Z,64.09
2019-06-08T22:10:07.500Z,64.12
2019-06-08T22:11:08.316Z,64.59
2019-06-08T22:12:07.178Z,64.56
2019-06-08T22:13:08.665Z,63.99
2019-06-08T22:14:07.327Z,64.18
2019-06-08T22:15:07.510Z,64.28